Time;durP1;ratioP1;P1;durP2;ratioP2;P2;SDS_P1;SDS_P2;PMS_P1;PMS_P2;Temp;Humidity;BMP_temperature;BMP_pressure;BME280_temperature;BME280_humidity;BME280_pressure;Samples;Min_cycle;Max_cycle;Signal;HPM_P1;HPM_P2
2021/10/23 00:01:49;;;;;;;25.35;17.63;;;18.90;99.20;;;;;;5008542;28;20030;-71
2021/10/23 00:04:15;;;;;;;28.92;16.63;;;18.90;99.20;;;;;;5004882;28;20036;-72
2021/10/23 00:06:40;;;;;;;26.52;16.27;;;18.80;99.20;;;;;;5008042;28;20069;-72
2021/10/23 00:09:06;;;;;;;29.05;17.10;;;18.80;99.30;;;;;;5007642;28;20101;-72
2021/10/23 00:11:32;;;;;;;22.55;16.27;;;18.80;99.30;;;;;;4988529;28;20076;-72
2021/10/23 00:13:57;;;;;;;25.05;16.83;;;18.80;99.40;;;;;;5009714;28;20471;-73
2021/10/23 00:16:23;;;;;;;27.58;17.25;;;18.80;99.40;;;;;;5007279;28;20966;-72
2021/10/23 00:18:49;;;;;;;27.30;18.00;;;18.80;99.50;;;;;;4993905;28;20018;-72
2021/10/23 00:21:15;;;;;;;25.98;17.70;;;18.70;99.60;;;;;;5007557;28;20026;-72
2021/10/23 00:23:40;;;;;;;25.08;18.73;;;18.70;99.50;;;;;;5007007;28;20015;-72
2021/10/23 00:26:06;;;;;;;30.15;19.48;;;18.70;99.60;;;;;;5006584;28;20566;-72
2021/10/23 00:28:32;;;;;;;29.88;18.08;;;18.70;99.50;;;;;;5006998;28;20026;-71
2021/10/23 00:30:58;;;;;;;29.75;18.75;;;18.70;99.50;;;;;;5006531;28;20046;-72
2021/10/23 00:33:24;;;;;;;31.92;18.90;;;18.60;99.40;;;;;;5009513;28;20030;-71
2021/10/23 00:35:50;;;;;;;25.77;18.98;;;18.60;99.50;;;;;;4990402;28;20037;-73
2021/10/23 00:38:16;;;;;;;31.13;19.92;;;18.60;99.60;;;;;;4992629;28;20541;-71
2021/10/23 00:40:42;;;;;;;27.95;18.13;;;18.60;99.60;;;;;;5008581;28;20244;-73
2021/10/23 00:43:07;;;;;;;28.95;18.58;;;18.60;99.70;;;;;;5009503;28;20025;-74
2021/10/23 00:45:33;;;;;;;31.30;19.15;;;18.60;99.70;;;;;;4992408;28;20038;-74
2021/10/23 00:47:59;;;;;;;29.48;18.85;;;18.60;99.80;;;;;;5012961;28;20026;-73
2021/10/23 00:50:26;;;;;;;25.02;17.35;;;18.60;99.90;;;;;;5012764;28;20022;-73
2021/10/23 00:52:52;;;;;;;28.83;18.98;;;18.60;99.90;;;;;;5012786;28;20029;-72
2021/10/23 00:55:19;;;;;;;27.92;18.33;;;18.60;99.90;;;;;;5011729;28;20486;-73
2021/10/23 00:57:45;;;;;;;25.55;18.67;;;18.60;99.90;;;;;;5012995;28;20568;-72
2021/10/23 01:00:11;;;;;;;26.23;17.50;;;18.50;99.90;;;;;;5012790;28;20034;-73
2021/10/23 01:02:37;;;;;;;32.15;19.00;;;18.50;99.90;;;;;;5007948;28;20497;-71
2021/10/23 01:05:07;;;;;;;29.02;19.58;;;18.50;99.90;;;;;;5005951;28;20034;-71
2021/10/23 01:07:35;;;;;;;28.27;18.55;;;18.50;99.90;;;;;;5002552;28;20215;-74
2021/10/23 01:10:03;;;;;;;25.40;17.63;;;18.50;99.90;;;;;;5003607;28;20053;-72
2021/10/23 01:12:29;;;;;;;25.35;17.63;;;18.50;99.90;;;;;;5010165;28;20033;-71
2021/10/23 01:14:54;;;;;;;31.27;19.00;;;18.50;99.90;;;;;;5010032;28;20471;-72
2021/10/23 01:17:23;;;;;;;28.98;18.42;;;18.50;99.90;;;;;;5012390;28;20400;-72
2021/10/23 01:19:51;;;;;;;29.98;18.42;;;18.50;99.90;;;;;;5012226;28;20030;-72
2021/10/23 01:22:25;;;;;;;30.60;18.80;;;18.50;99.90;;;;;;5012843;28;20379;-72
2021/10/23 01:24:51;;;;;;;34.30;19.27;;;18.50;99.90;;;;;;5012436;28;20026;-71
2021/10/23 01:27:17;;;;;;;31.98;19.02;;;18.50;99.90;;;;;;5012613;28;20042;-72
2021/10/23 01:29:42;;;;;;;33.17;19.50;;;18.50;99.90;;;;;;5014213;28;20025;-72
2021/10/23 01:32:08;;;;;;;27.08;18.00;;;18.50;99.90;;;;;;5015658;28;20064;-72
2021/10/23 01:34:34;;;;;;;31.20;18.95;;;18.50;99.90;;;;;;5016086;28;20084;-72
2021/10/23 01:37:00;;;;;;;29.58;19.05;;;18.40;99.90;;;;;;5015774;28;20448;-72
2021/10/23 01:39:27;;;;;;;29.63;19.52;;;18.50;99.90;;;;;;5015883;28;20101;-71
2021/10/23 01:41:54;;;;;;;34.38;19.90;;;18.40;99.90;;;;;;5015653;28;20030;-72
2021/10/23 01:44:31;;;;;;;26.90;18.85;;;18.40;99.90;;;;;;5015493;28;20097;-70
2021/10/23 01:46:56;;;;;;;29.85;19.58;;;18.50;99.90;;;;;;5015679;28;20029;-71
2021/10/23 01:49:22;;;;;;;27.10;18.77;;;18.50;99.90;;;;;;4997940;28;20026;-71
2021/10/23 01:51:49;;;;;;;28.02;19.73;;;18.40;99.90;;;;;;5015537;28;20041;-72
2021/10/23 01:54:15;;;;;;;29.58;18.88;;;18.50;99.90;;;;;;5015578;28;20022;-72
2021/10/23 01:56:41;;;;;;;32.35;19.75;;;18.40;99.90;;;;;;5015679;28;20021;-71
2021/10/23 01:59:08;;;;;;;35.03;19.15;;;18.40;99.90;;;;;;5015352;28;20459;-71
2021/10/23 02:01:34;;;;;;;27.10;19.95;;;18.40;99.90;;;;;;5015337;28;20033;-71
2021/10/23 02:04:00;;;;;;;31.35;20.63;;;18.40;99.90;;;;;;5015460;28;20391;-72
2021/10/23 02:06:26;;;;;;;30.55;19.83;;;18.40;99.90;;;;;;5015264;28;20034;-72
2021/10/23 02:08:51;;;;;;;29.27;19.48;;;18.40;99.90;;;;;;5015285;28;20177;-72
2021/10/23 02:11:18;;;;;;;29.65;19.65;;;18.40;99.90;;;;;;5015283;28;20493;-71
2021/10/23 02:13:44;;;;;;;27.58;20.48;;;18.30;99.90;;;;;;5015139;28;20032;-72
2021/10/23 02:16:10;;;;;;;30.27;19.67;;;18.30;99.90;;;;;;5015160;28;20394;-72
2021/10/23 02:18:36;;;;;;;27.35;20.45;;;18.30;99.90;;;;;;5014928;28;20029;-72
2021/10/23 02:21:05;;;;;;;28.50;19.92;;;18.20;99.90;;;;;;5015160;28;20030;-72
2021/10/23 02:23:31;;;;;;;25.80;19.10;;;18.20;99.90;;;;;;4997495;28;20525;-73
2021/10/23 02:25:57;;;;;;;28.15;19.63;;;18.30;99.90;;;;;;5014859;28;20126;-72
2021/10/23 02:28:22;;;;;;;25.98;18.60;;;18.30;99.90;;;;;;5014855;28;20040;-71
2021/10/23 02:30:48;;;;;;;24.38;18.30;;;18.30;99.90;;;;;;4997093;28;20142;-72
2021/10/23 02:33:14;;;;;;;22.75;17.85;;;18.30;99.90;;;;;;5015197;28;20038;-72
2021/10/23 02:35:39;;;;;;;22.42;19.00;;;18.30;99.90;;;;;;5014759;28;20018;-73
2021/10/23 02:38:05;;;;;;;21.65;17.67;;;18.30;99.90;;;;;;5014646;28;20030;-71
2021/10/23 02:40:31;;;;;;;22.60;17.55;;;18.30;99.90;;;;;;5013778;28;20379;-72
2021/10/23 02:42:57;;;;;;;21.88;17.52;;;18.30;99.70;;;;;;5014695;28;20028;-72
2021/10/23 02:45:22;;;;;;;25.50;18.33;;;18.30;99.60;;;;;;5014553;28;20529;-72
2021/10/23 02:47:48;;;;;;;22.77;17.83;;;18.20;99.50;;;;;;5014699;28;20147;-72
2021/10/23 02:50:14;;;;;;;22.75;17.58;;;18.20;99.30;;;;;;5014617;28;20029;-71
2021/10/23 02:52:40;;;;;;;20.83;16.75;;;18.30;99.40;;;;;;4996910;28;20379;-73
2021/10/23 02:55:06;;;;;;;21.63;16.98;;;18.30;99.30;;;;;;5014559;28;20029;-71
2021/10/23 02:57:32;;;;;;;25.27;17.00;;;18.30;99.30;;;;;;5014479;28;20125;-72
2021/10/23 02:59:58;;;;;;;22.70;16.45;;;18.40;99.30;;;;;;5014547;28;20351;-72
2021/10/23 03:02:24;;;;;;;19.85;15.88;;;18.40;99.20;;;;;;5014304;28;20359;-72
2021/10/23 03:04:49;;;;;;;21.23;15.18;;;18.50;99.20;;;;;;5014301;28;20053;-72
2021/10/23 03:07:15;;;;;;;22.38;16.05;;;18.50;99.10;;;;;;5014210;28;20088;-73
2021/10/23 03:09:41;;;;;;;20.90;16.85;;;18.50;99.10;;;;;;5014320;28;20056;-72
2021/10/23 03:12:07;;;;;;;20.83;16.90;;;18.50;99.20;;;;;;5014145;28;20434;-72
2021/10/23 03:14:32;;;;;;;23.25;17.38;;;18.40;99.30;;;;;;5014244;28;20096;-73
2021/10/23 03:16:58;;;;;;;26.13;16.50;;;18.40;99.30;;;;;;5013971;28;20471;-72
2021/10/23 03:19:24;;;;;;;20.58;16.17;;;18.40;99.40;;;;;;5013937;28;20431;-72
2021/10/23 03:21:50;;;;;;;24.63;17.02;;;18.40;99.60;;;;;;5013872;28;20025;-72
2021/10/23 03:24:15;;;;;;;24.00;18.45;;;18.30;99.70;;;;;;5013735;28;20034;-73
2021/10/23 03:26:41;;;;;;;22.88;17.27;;;18.40;99.90;;;;;;5013875;28;20398;-72
2021/10/23 03:29:07;;;;;;;24.77;17.08;;;18.30;99.90;;;;;;5013848;28;20025;-72
2021/10/23 03:31:33;;;;;;;24.48;17.60;;;18.30;99.90;;;;;;5013454;28;20057;-72
2021/10/23 03:33:59;;;;;;;27.35;18.25;;;18.30;99.90;;;;;;5013766;28;20017;-72
2021/10/23 03:36:25;;;;;;;24.08;18.10;;;18.20;99.90;;;;;;5013797;28;20038;-72
2021/10/23 03:38:51;;;;;;;23.60;18.08;;;18.20;99.90;;;;;;5013763;28;20455;-72
2021/10/23 03:41:17;;;;;;;27.33;17.67;;;18.20;99.90;;;;;;5013608;28;20030;-72
2021/10/23 03:43:42;;;;;;;27.67;19.00;;;18.10;99.90;;;;;;5013568;28;20437;-72
2021/10/23 03:46:08;;;;;;;23.42;19.00;;;18.10;99.90;;;;;;5013625;28;20036;-73
2021/10/23 03:48:33;;;;;;;25.88;18.40;;;18.10;99.90;;;;;;5013641;28;20037;-73
2021/10/23 03:50:59;;;;;;;24.17;18.92;;;18.10;99.90;;;;;;5012973;28;20080;-73
2021/10/23 03:53:25;;;;;;;29.52;19.27;;;18.10;99.90;;;;;;5013395;28;20124;-71
2021/10/23 03:55:51;;;;;;;26.38;19.15;;;18.10;99.90;;;;;;5013854;28;20112;-72
2021/10/23 03:58:16;;;;;;;21.83;18.77;;;18.00;99.90;;;;;;5013299;28;20130;-72
2021/10/23 04:00:43;;;;;;;26.10;19.67;;;18.00;99.90;;;;;;5013321;28;20037;-72
2021/10/23 04:03:08;;;;;;;24.77;18.92;;;18.00;99.90;;;;;;4995703;28;20026;-72
2021/10/23 04:05:34;;;;;;;26.65;19.55;;;18.00;99.90;;;;;;5012949;28;20026;-72
2021/10/23 04:08:01;;;;;;;28.20;20.27;;;18.00;99.90;;;;;;5013027;28;20137;-71
2021/10/23 04:10:27;;;;;;;27.25;19.92;;;17.90;99.90;;;;;;5012835;28;20033;-71
2021/10/23 04:12:52;;;;;;;26.05;19.75;;;17.90;99.90;;;;;;5013089;28;20029;-72
2021/10/23 04:15:18;;;;;;;24.33;20.23;;;18.00;99.90;;;;;;5013773;28;20028;-71
2021/10/23 04:17:44;;;;;;;27.40;19.73;;;17.90;99.90;;;;;;5013115;28;20040;-72
2021/10/23 04:20:10;;;;;;;28.02;19.92;;;17.90;99.90;;;;;;5012822;28;20052;-72
2021/10/23 04:22:36;;;;;;;24.92;20.10;;;17.90;99.90;;;;;;5013007;28;20037;-71
2021/10/23 04:25:02;;;;;;;26.98;18.15;;;17.90;99.90;;;;;;5012930;28;20026;-72
2021/10/23 04:27:28;;;;;;;23.83;18.98;;;17.80;99.90;;;;;;5012884;28;20033;-73
2021/10/23 04:29:54;;;;;;;27.25;18.90;;;17.80;99.90;;;;;;5012586;28;20024;-72
2021/10/23 04:32:19;;;;;;;24.50;17.95;;;17.80;99.90;;;;;;5012773;28;20046;-72
2021/10/23 04:34:46;;;;;;;26.35;17.90;;;17.80;99.90;;;;;;4995298;28;20030;-71
2021/10/23 04:37:12;;;;;;;23.08;17.77;;;17.90;99.90;;;;;;5013187;28;20083;-72
2021/10/23 04:39:37;;;;;;;23.38;18.48;;;17.90;99.90;;;;;;5012868;28;20104;-71
2021/10/23 04:42:04;;;;;;;27.30;19.13;;;17.90;99.90;;;;;;5013073;28;20034;-72
2021/10/23 04:44:30;;;;;;;24.30;19.08;;;17.90;99.90;;;;;;5012961;28;20022;-72
2021/10/23 04:46:55;;;;;;;30.42;19.58;;;17.90;99.90;;;;;;5012742;28;20359;-73
2021/10/23 04:49:21;;;;;;;26.10;20.25;;;17.90;99.90;;;;;;5012877;28;20018;-72
2021/10/23 04:51:47;;;;;;;25.50;20.77;;;17.90;99.90;;;;;;5012705;28;20061;-71
2021/10/23 04:54:12;;;;;;;24.42;20.13;;;17.90;99.90;;;;;;5012838;28;20040;-71
2021/10/23 04:56:38;;;;;;;22.15;18.50;;;17.90;99.90;;;;;;5012618;28;20030;-72
2021/10/23 04:59:04;;;;;;;23.95;18.85;;;17.90;99.90;;;;;;5012810;28;20042;-72
2021/10/23 05:01:29;;;;;;;28.48;20.52;;;17.90;99.90;;;;;;5012767;28;20026;-72
2021/10/23 05:03:55;;;;;;;27.08;20.45;;;17.90;99.90;;;;;;4996496;28;20116;-71
2021/10/23 05:06:21;;;;;;;26.67;21.05;;;17.90;99.90;;;;;;5017105;28;20042;-72
2021/10/23 05:08:46;;;;;;;30.30;21.27;;;17.80;99.90;;;;;;5016666;28;20543;-72
2021/10/23 05:11:12;;;;;;;23.45;20.00;;;17.80;99.90;;;;;;5016581;28;20033;-72
2021/10/23 05:13:38;;;;;;;24.08;19.30;;;17.80;99.90;;;;;;5016568;28;20026;-71
2021/10/23 05:16:04;;;;;;;28.58;20.75;;;17.70;99.90;;;;;;4999333;28;20030;-73
2021/10/23 05:18:30;;;;;;;24.95;19.65;;;17.70;99.90;;;;;;5016360;28;20029;-73
2021/10/23 05:20:56;;;;;;;27.77;19.98;;;17.70;99.90;;;;;;5016289;28;20113;-72
2021/10/23 05:23:21;;;;;;;26.00;20.55;;;17.70;99.90;;;;;;5016465;28;20113;-73
2021/10/23 05:25:47;;;;;;;24.88;20.45;;;17.70;99.90;;;;;;5016989;28;20117;-72
2021/10/23 05:28:13;;;;;;;26.35;19.88;;;17.70;99.90;;;;;;5016702;28;20121;-73
2021/10/23 05:30:39;;;;;;;27.25;20.17;;;17.70;99.90;;;;;;5016286;28;20572;-72
2021/10/23 05:33:05;;;;;;;25.48;19.63;;;17.80;99.90;;;;;;5016215;28;20118;-72
2021/10/23 05:35:31;;;;;;;23.67;19.15;;;17.80;99.90;;;;;;4998926;28;20046;-72
2021/10/23 05:37:57;;;;;;;24.40;19.58;;;17.80;99.90;;;;;;5016399;28;20057;-72
2021/10/23 05:40:23;;;;;;;25.13;18.40;;;17.80;99.90;;;;;;5015967;28;20065;-72
2021/10/23 05:42:49;;;;;;;26.30;20.63;;;17.80;99.90;;;;;;5016571;28;20534;-70
2021/10/23 05:45:15;;;;;;;26.33;20.90;;;17.70;99.90;;;;;;5017074;28;20026;-72
2021/10/23 05:47:40;;;;;;;28.08;20.80;;;17.80;99.90;;;;;;5024718;28;20029;-71
2021/10/23 05:50:08;;;;;;;27.73;20.65;;;17.80;99.90;;;;;;5018405;28;20056;-72
2021/10/23 05:52:34;;;;;;;32.72;20.50;;;17.80;99.90;;;;;;5029975;28;20475;-72
2021/10/23 05:55:01;;;;;;;25.88;19.95;;;17.80;99.90;;;;;;5016155;28;20104;-71
2021/10/23 05:57:26;;;;;;;23.95;19.35;;;17.80;99.90;;;;;;5016142;28;20093;-73
2021/10/23 05:59:52;;;;;;;24.15;19.10;;;17.90;99.90;;;;;;5015847;28;20068;-72
2021/10/23 06:02:31;;;;;;;24.90;18.88;;;17.90;99.90;;;;;;5015899;28;20018;-73
2021/10/23 06:04:59;;;;;;;21.80;19.42;;;17.90;99.90;;;;;;5015494;28;20025;-72
2021/10/23 06:07:29;;;;;;;25.10;17.50;;;17.90;99.90;;;;;;5015025;28;20034;-73
2021/10/23 06:09:56;;;;;;;21.42;18.05;;;18.00;99.90;;;;;;5015478;28;20530;-74
2021/10/23 06:12:22;;;;;;;21.58;17.30;;;17.90;99.90;;;;;;5015494;28;20069;-73
2021/10/23 06:14:48;;;;;;;21.63;17.67;;;17.90;99.90;;;;;;5015852;28;20108;-73
2021/10/23 06:17:13;;;;;;;21.45;17.42;;;17.90;99.90;;;;;;5016332;28;20022;-72
2021/10/23 06:19:40;;;;;;;24.35;17.48;;;17.90;99.90;;;;;;5015819;28;20032;-73
2021/10/23 06:22:07;;;;;;;21.00;17.52;;;17.90;99.90;;;;;;5014706;28;20025;-72
2021/10/23 06:24:34;;;;;;;22.50;16.73;;;18.00;99.90;;;;;;5015269;28;20113;-72
2021/10/23 06:27:00;;;;;;;22.80;16.50;;;18.00;99.90;;;;;;5014835;28;20116;-72
2021/10/23 06:29:27;;;;;;;21.58;15.93;;;18.00;99.90;;;;;;5015463;28;20022;-73
2021/10/23 06:31:53;;;;;;;19.48;15.70;;;18.00;99.90;;;;;;5014754;28;20506;-71
2021/10/23 06:34:19;;;;;;;25.15;16.60;;;18.00;99.90;;;;;;5014804;28;20045;-73
2021/10/23 06:36:45;;;;;;;22.38;15.98;;;18.00;99.90;;;;;;5015062;28;20043;-72
2021/10/23 06:39:10;;;;;;;23.05;14.90;;;18.00;99.90;;;;;;5014939;28;20022;-73
2021/10/23 06:41:36;;;;;;;20.45;14.80;;;18.00;99.90;;;;;;5014577;28;20080;-73
2021/10/23 06:44:08;;;;;;;19.02;13.55;;;18.00;99.90;;;;;;5014736;28;20092;-72
2021/10/23 06:46:36;;;;;;;18.40;14.07;;;18.10;99.90;;;;;;5014235;28;20364;-73
2021/10/23 06:49:02;;;;;;;19.65;15.05;;;18.10;99.90;;;;;;5014398;28;20070;-73
2021/10/23 06:51:28;;;;;;;16.73;14.70;;;18.10;99.90;;;;;;5014500;28;20026;-71
2021/10/23 06:53:57;;;;;;;17.25;13.25;;;18.10;99.90;;;;;;5014445;28;20037;-73
2021/10/23 06:56:23;;;;;;;18.77;14.32;;;18.00;99.90;;;;;;5014418;28;20077;-73
2021/10/23 06:58:49;;;;;;;18.17;14.57;;;18.00;99.90;;;;;;5014506;28;20030;-74
2021/10/23 07:01:14;;;;;;;21.85;13.95;;;18.00;99.90;;;;;;5014163;28;20386;-72
2021/10/23 07:03:40;;;;;;;19.48;14.18;;;18.00;99.90;;;;;;5014061;28;20096;-72
2021/10/23 07:06:06;;;;;;;18.65;13.75;;;18.10;99.90;;;;;;4996312;28;20045;-72
2021/10/23 07:08:31;;;;;;;19.98;14.25;;;18.10;99.90;;;;;;5014047;28;20044;-71
2021/10/23 07:10:57;;;;;;;19.67;13.40;;;18.20;99.90;;;;;;5014136;28;20090;-70
2021/10/23 07:13:23;;;;;;;19.90;13.90;;;18.20;99.90;;;;;;5013965;28;20030;-73
2021/10/23 07:15:49;;;;;;;16.67;13.43;;;18.20;99.90;;;;;;5014330;28;20018;-73
2021/10/23 07:18:14;;;;;;;17.25;12.68;;;18.30;99.90;;;;;;4996464;28;20065;-74
2021/10/23 07:20:40;;;;;;;20.25;12.90;;;18.30;99.90;;;;;;5014076;28;20026;-76
2021/10/23 07:23:06;;;;;;;15.32;12.70;;;18.30;99.90;;;;;;4996190;28;20036;-75
2021/10/23 07:25:32;;;;;;;16.30;13.15;;;18.30;99.90;;;;;;5013774;28;20052;-77
2021/10/23 07:27:58;;;;;;;19.52;12.68;;;18.30;99.90;;;;;;5013323;28;20033;-72
2021/10/23 07:30:24;;;;;;;16.15;12.50;;;18.40;99.90;;;;;;5013684;28;20045;-76
2021/10/23 07:32:50;;;;;;;20.30;13.02;;;18.40;99.90;;;;;;5013911;28;20080;-73
2021/10/23 07:35:16;;;;;;;14.85;11.48;;;18.40;99.90;;;;;;5013995;28;20075;-74
2021/10/23 07:37:43;;;;;;;16.02;12.35;;;18.40;99.90;;;;;;5013644;28;20034;-74
2021/10/23 07:40:12;;;;;;;17.73;12.40;;;18.40;99.90;;;;;;5013311;28;20032;-72
2021/10/23 07:42:38;;;;;;;17.25;11.80;;;18.40;99.90;;;;;;5014401;28;20036;-75
2021/10/23 07:45:05;;;;;;;21.17;12.70;;;18.40;99.90;;;;;;4995851;28;20026;-73
2021/10/23 07:47:31;;;;;;;22.73;14.32;;;18.40;99.90;;;;;;5013627;28;20564;-74
2021/10/23 07:50:00;;;;;;;15.70;12.15;;;18.40;99.90;;;;;;5013400;28;20057;-78
2021/10/23 07:52:25;;;;;;;19.40;12.32;;;18.40;99.90;;;;;;4996159;28;20037;-77
2021/10/23 07:54:51;;;;;;;16.95;12.60;;;18.40;99.90;;;;;;5013870;28;20026;-76
2021/10/23 07:57:17;;;;;;;17.98;12.18;;;18.40;99.90;;;;;;5013723;28;20037;-77
2021/10/23 07:59:44;;;;;;;17.15;12.10;;;18.50;99.90;;;;;;5013525;28;20123;-75
2021/10/23 08:02:10;;;;;;;16.40;11.50;;;18.50;99.90;;;;;;5013022;28;20021;-75
2021/10/23 08:04:36;;;;;;;15.20;10.95;;;18.50;99.90;;;;;;5012847;28;20072;-71
2021/10/23 08:07:03;;;;;;;16.52;11.18;;;18.60;99.90;;;;;;5012738;28;20066;-73
2021/10/23 08:09:31;;;;;;;14.90;11.35;;;18.70;99.90;;;;;;4995451;28;20104;-69
2021/10/23 08:11:57;;;;;;;18.50;11.25;;;18.80;99.90;;;;;;5009545;28;20498;-77
2021/10/23 08:14:23;;;;;;;17.08;11.20;;;18.90;99.90;;;;;;4997510;28;20076;-75
2021/10/23 08:16:48;;;;;;;17.30;11.52;;;18.90;99.90;;;;;;4993519;28;20030;-73
2021/10/23 08:19:14;;;;;;;12.68;10.65;;;18.90;99.70;;;;;;4993473;28;20030;-76
2021/10/23 08:21:41;;;;;;;14.65;11.25;;;19.00;99.60;;;;;;4993016;28;20027;-75
2021/10/23 08:24:07;;;;;;;15.95;11.70;;;19.10;99.50;;;;;;4975708;28;20491;-76
2021/10/23 08:26:33;;;;;;;23.20;12.70;;;19.10;99.20;;;;;;4975857;28;20104;-75
2021/10/23 08:28:59;;;;;;;16.60;11.98;;;19.10;99.20;;;;;;4976127;28;20027;-71
2021/10/23 08:31:25;;;;;;;16.30;11.77;;;19.20;99.20;;;;;;4993233;28;20619;-75
2021/10/23 08:33:51;;;;;;;20.83;12.43;;;19.20;99.20;;;;;;4992795;28;20072;-72
2021/10/23 08:36:17;;;;;;;15.13;10.88;;;19.30;99.20;;;;;;4993218;28;20058;-76
2021/10/23 08:38:42;;;;;;;23.15;11.15;;;19.30;98.90;;;;;;4995898;28;20066;-75
2021/10/23 08:41:10;;;;;;;20.40;10.60;;;19.30;98.50;;;;;;4996998;28;20428;-72
2021/10/23 08:43:36;;;;;;;16.42;11.07;;;19.40;98.20;;;;;;4996835;28;20034;-73
2021/10/23 08:46:05;;;;;;;15.85;10.48;;;19.40;97.90;;;;;;4979804;28;20038;-76
2021/10/23 08:48:32;;;;;;;15.00;10.43;;;19.40;97.50;;;;;;4997068;28;20027;-77
2021/10/23 08:51:02;;;;;;;13.43;9.60;;;19.50;97.30;;;;;;4996964;28;20100;-73
2021/10/23 08:53:28;;;;;;;15.02;9.90;;;19.60;97.00;;;;;;5015871;28;20549;-74
2021/10/23 08:55:58;;;;;;;14.70;9.00;;;19.70;97.10;;;;;;5016405;28;20486;-74
2021/10/23 08:58:24;;;;;;;12.65;8.10;;;19.70;96.50;;;;;;5016180;28;20496;-74
2021/10/23 09:00:50;;;;;;;14.52;8.02;;;19.80;96.10;;;;;;5016276;28;20117;-73
2021/10/23 09:03:17;;;;;;;13.02;8.50;;;19.90;95.90;;;;;;5016750;28;20026;-74
2021/10/23 09:05:42;;;;;;;16.75;8.60;;;19.90;95.70;;;;;;5016073;28;20514;-77
2021/10/23 09:08:15;;;;;;;14.57;8.85;;;20.00;95.50;;;;;;5016318;28;20022;-76
2021/10/23 09:10:50;;;;;;;12.50;8.55;;;20.10;95.30;;;;;;5016101;28;20053;-75
2021/10/23 09:13:30;;;;;;;14.02;8.88;;;20.20;95.10;;;;;;5016221;28;20474;-76
2021/10/23 09:15:56;;;;;;;14.18;7.35;;;20.20;94.90;;;;;;4998542;28;20030;-74
2021/10/23 09:18:45;;;;;;;14.45;8.68;;;20.20;94.60;;;;;;5015631;28;20083;-73
2021/10/23 09:21:21;;;;;;;13.88;8.07;;;20.30;94.60;;;;;;5016030;28;20053;-74
2021/10/23 09:23:51;;;;;;;12.75;8.50;;;20.30;94.20;;;;;;5016188;28;20029;-75
2021/10/23 09:26:37;;;;;;;18.38;7.90;;;20.40;94.00;;;;;;5015796;28;20026;-77
2021/10/23 09:29:13;;;;;;;13.63;7.43;;;20.40;93.60;;;;;;5015933;28;20018;-76
2021/10/23 09:31:44;;;;;;;13.85;7.95;;;20.40;93.20;;;;;;5016801;28;20046;-79
2021/10/23 09:34:15;;;;;;;13.48;8.63;;;20.50;93.10;;;;;;5019760;28;20034;-87
2021/10/23 09:36:53;;;;;;;14.60;8.15;;;20.60;93.20;;;;;;4987908;28;20042;-82
2021/10/23 09:39:28;;;;;;;18.05;9.27;;;20.80;92.60;;;;;;5018316;28;20126;-84
2021/10/23 09:42:18;;;;;;;23.52;16.17;;;20.90;92.20;;;;;;5016052;28;20025;-76
2021/10/23 09:45:11;;;;;;;13.70;9.65;;;21.10;92.20;;;;;;5015918;28;20129;-78
2021/10/23 09:48:06;;;;;;;13.27;8.63;;;21.20;91.40;;;;;;5012006;28;20052;-75
2021/10/23 09:50:31;;;;;;;11.48;7.82;;;21.30;91.60;;;;;;5013875;28;20030;-76
2021/10/23 09:53:05;;;;;;;11.90;8.10;;;21.30;91.10;;;;;;5015965;28;20036;-74
2021/10/23 09:55:38;;;;;;;13.25;7.75;;;21.30;91.10;;;;;;5015200;28;20014;-78
2021/10/23 09:58:17;;;;;;;11.20;7.47;;;21.40;91.10;;;;;;5015349;28;20026;-75
2021/10/23 10:00:44;;;;;;;12.65;7.95;;;21.50;91.00;;;;;;5015156;28;20494;-76
2021/10/23 10:03:11;;;;;;;14.93;7.93;;;21.50;90.30;;;;;;5015093;28;20029;-74
2021/10/23 10:05:39;;;;;;;10.45;6.63;;;21.50;90.30;;;;;;5014979;28;20022;-75
2021/10/23 10:08:10;;;;;;;10.98;6.95;;;21.50;90.20;;;;;;4997503;28;20558;-77
2021/10/23 10:10:42;;;;;;;8.65;5.95;;;21.60;89.50;;;;;;5014908;28;20383;-76
2021/10/23 10:13:14;;;;;;;12.73;6.65;;;21.60;90.00;;;;;;5014941;28;20091;-75
2021/10/23 10:15:47;;;;;;;11.10;7.35;;;21.60;88.60;;;;;;5015099;28;20022;-75
2021/10/23 10:18:17;;;;;;;13.07;6.38;;;21.60;88.00;;;;;;4997126;28;20033;-76
2021/10/23 10:20:45;;;;;;;11.68;6.50;;;21.60;88.40;;;;;;5013944;28;20048;-76
2021/10/23 10:23:36;;;;;;;8.25;5.55;;;21.60;87.30;;;;;;5015306;28;20026;-75
2021/10/23 10:26:32;;;;;;;12.60;5.88;;;21.60;85.60;;;;;;5015151;28;20152;-75
2021/10/23 10:29:42;;;;;;;9.65;5.70;;;21.60;85.10;;;;;;5012894;28;20088;-78
2021/10/23 10:32:33;;;;;;;10.48;6.10;;;21.70;84.70;;;;;;5006920;28;20418;-75
2021/10/23 10:38:01;;;;;;;9.68;6.00;;;21.80;83.40;;;;;;5014919;28;20068;-77
2021/10/23 10:40:56;;;;;;;10.52;5.75;;;21.90;83.40;;;;;;5014351;28;20029;-75
2021/10/23 10:43:21;;;;;;;10.48;6.53;;;22.00;82.30;;;;;;5014457;28;20487;-77
2021/10/23 10:45:47;;;;;;;10.43;6.20;;;22.00;82.10;;;;;;5014729;28;20096;-74
2021/10/23 10:48:47;;;;;;;10.45;5.90;;;22.00;81.50;;;;;;5014526;28;20503;-72
2021/10/23 10:51:14;;;;;;;10.90;5.85;;;22.10;82.00;;;;;;5013519;28;20034;-74
2021/10/23 10:53:41;;;;;;;11.55;6.50;;;22.20;81.50;;;;;;5014379;28;20026;-75
2021/10/23 10:56:16;;;;;;;10.10;6.90;;;22.20;80.30;;;;;;5014141;28;20537;-75
2021/10/23 10:58:55;;;;;;;9.50;6.10;;;22.30;79.20;;;;;;5013988;28;20030;-72
2021/10/23 11:01:34;;;;;;;13.73;7.30;;;22.40;79.70;;;;;;5012849;28;20022;-74
2021/10/23 11:04:06;;;;;;;11.27;6.78;;;22.40;79.00;;;;;;4996589;28;20383;-74
2021/10/23 11:06:34;;;;;;;11.18;6.45;;;22.40;79.00;;;;;;5014357;28;20026;-76
2021/10/23 11:09:09;;;;;;;10.90;6.63;;;22.40;78.40;;;;;;5014208;28;20022;-73
2021/10/23 11:12:03;;;;;;;9.52;6.07;;;22.40;79.30;;;;;;5013881;28;20022;-74
2021/10/23 11:14:28;;;;;;;11.23;6.95;;;22.50;77.90;;;;;;4985156;28;20030;-72
2021/10/23 11:16:54;;;;;;;9.38;5.40;;;22.50;81.40;;;;;;5013950;28;20040;-72
2021/10/23 11:19:21;;;;;;;10.43;5.55;;;22.50;77.20;;;;;;5014076;28;20026;-71
2021/10/23 11:22:07;;;;;;;8.85;5.97;;;22.40;82.60;;;;;;5070099;28;20378;-72
2021/10/23 11:25:03;;;;;;;11.52;5.43;;;22.40;76.90;;;;;;5070135;28;20032;-73
2021/10/23 11:27:33;;;;;;;9.68;5.50;;;22.40;77.10;;;;;;5068623;28;20433;-72
2021/10/23 11:30:18;;;;;;;11.93;5.97;;;22.40;80.80;;;;;;5069745;28;20059;-71
2021/10/23 11:32:54;;;;;;;11.20;6.68;;;22.40;77.50;;;;;;5070118;28;20111;-70
2021/10/23 11:35:43;;;;;;;10.10;6.40;;;22.40;77.30;;;;;;5069995;28;20017;-70
2021/10/23 11:38:20;;;;;;;11.70;7.28;;;22.30;78.10;;;;;;5070345;28;20059;-71
2021/10/23 11:40:46;;;;;;;10.00;7.30;;;22.30;79.10;;;;;;5069870;28;20052;-73
2021/10/23 11:43:19;;;;;;;11.82;6.60;;;22.30;78.20;;;;;;5070254;28;20040;-71
2021/10/23 11:45:46;;;;;;;12.77;6.95;;;22.20;79.70;;;;;;5069630;28;20078;-73
2021/10/23 11:48:12;;;;;;;8.18;5.72;;;22.30;77.70;;;;;;5069560;28;20470;-74
2021/10/23 11:50:41;;;;;;;8.77;5.88;;;22.20;77.40;;;;;;5069297;28;20091;-72
2021/10/23 11:53:30;;;;;;;10.18;6.40;;;22.30;78.80;;;;;;5069559;28;20017;-74
2021/10/23 11:56:01;;;;;;;7.55;5.40;;;22.20;77.80;;;;;;5069638;28;20059;-74
2021/10/23 11:58:31;;;;;;;10.20;6.20;;;22.20;76.50;;;;;;5069844;28;20024;-72
2021/10/23 12:01:12;;;;;;;11.95;5.95;;;22.20;76.00;;;;;;5067862;28;20388;-71
2021/10/23 12:03:42;;;;;;;16.30;9.32;;;22.20;77.00;;;;;;5069464;28;20021;-72
2021/10/23 12:06:22;;;;;;;10.85;5.78;;;22.20;77.30;;;;;;5069637;28;20127;-73
2021/10/23 12:08:51;;;;;;;9.30;6.40;;;22.30;76.90;;;;;;5068236;28;20041;-73
2021/10/23 12:11:22;;;;;;;12.63;6.82;;;22.40;76.40;;;;;;5069619;28;20096;-69
2021/10/23 12:14:04;;;;;;;15.13;8.20;;;22.40;77.10;;;;;;5068363;28;20036;-73
2021/10/23 12:16:40;;;;;;;11.25;8.15;;;22.40;78.40;;;;;;5069919;28;20020;-73
2021/10/23 12:19:11;;;;;;;12.20;8.52;;;22.30;79.70;;;;;;5070528;28;20112;-73
2021/10/23 12:21:51;;;;;;;14.65;9.70;;;22.30;80.90;;;;;;5069803;28;20046;-72
2021/10/23 12:24:28;;;;;;;12.20;8.57;;;22.30;81.80;;;;;;5080669;28;20457;-71
2021/10/23 12:27:22;;;;;;;12.73;8.40;;;22.30;82.00;;;;;;5083979;28;20514;-72
2021/10/23 12:29:55;;;;;;;14.63;8.90;;;22.30;82.10;;;;;;5069936;28;20056;-72
2021/10/23 12:32:27;;;;;;;12.13;8.30;;;22.30;82.50;;;;;;5060791;28;20093;-72
2021/10/23 12:34:53;;;;;;;14.02;9.57;;;22.30;83.10;;;;;;5055841;28;20036;-73
2021/10/23 12:37:28;;;;;;;13.98;9.57;;;22.20;82.90;;;;;;5054622;28;20374;-78
2021/10/23 12:40:29;;;;;;;15.05;9.73;;;22.20;84.10;;;;;;5055431;28;20060;-71
2021/10/23 12:43:03;;;;;;;13.60;9.35;;;22.20;84.40;;;;;;5056095;28;20020;-75